Wetterstation Vordersexau
Wetterdaten: Woche 27.01.14 - 02.02.14 (KW5)
Datum Zeit Temp. A. Feuchte A. Luftdruck Regen Wind Richtung Taupunkt Windchill Windben
27.01.2014 00:00 7,0 C 84 % 967,9 hPa 0,0 l/m 19,1 km/h SW 4,5 C -0,3 C 19,1 km/h
27.01.2014 01:00 7,0 C 86 % 968,3 hPa 0,8 l/m 8,6 km/h W 4,8 C 5,3 C 8,6 km/h
27.01.2014 02:00 6,8 C 87 % 968,2 hPa 0,0 l/m 2,2 km/h W 4,8 C 6,8 C 2,2 km/h
27.01.2014 03:00 5,8 C 87 % 969,2 hPa 3,9 l/m 1,8 km/h W 3,8 C 5,8 C 1,8 km/h
27.01.2014 04:00 4,5 C 88 % 969,4 hPa 0,0 l/m 0,0 km/h W-NW 2,7 C 4,5 C 0,0 km/h
27.01.2014 05:00 5,3 C 87 % 970,5 hPa 0,0 l/m 0,0 km/h W 3,3 C 5,3 C 0,0 km/h
27.01.2014 06:00 4,6 C 88 % 970,6 hPa 0,0 l/m 0,0 km/h NW 2,8 C 4,6 C 0,0 km/h
27.01.2014 07:00 3,9 C 87 % 971,7 hPa 0,0 l/m 0,0 km/h SO 1,9 C 3,9 C 0,0 km/h
27.01.2014 08:00 3,3 C 88 % 972,4 hPa 0,0 l/m 0,0 km/h W-SW 1,5 C 3,3 C 0,0 km/h
27.01.2014 09:00 4,3 C 86 % 972,7 hPa 0,0 l/m 5,2 km/h W-SW 2,2 C 4,3 C 2,9 km/h
27.01.2014 10:00 5,1 C 83 % 972,7 hPa 0,0 l/m 11,0 km/h W 2,5 C 1,5 C 6,1 km/h
27.01.2014 11:00 7,2 C 78 % 999,4 hPa 0,0 l/m 6,5 km/h SW 3,6 C 7,1 C 3,6 km/h
27.01.2014 12:00 6,7 C 74 % 971,7 hPa 0,0 l/m 21,4 km/h W 2,4 C -1,5 C 11,9 km/h
27.01.2014 13:00 5,6 C 73 % 971,8 hPa 0,0 l/m 1,9 km/h W-SW 1,2 C 5,6 C 1,1 km/h
27.01.2014 14:00 5,3 C 77 % 971,6 hPa 0,0 l/m 7,1 km/h S-SW 1,6 C 4,7 C 4,0 km/h
27.01.2014 15:00 7,4 C 77 % 971,3 hPa 0,8 l/m 8,4 km/h W-SW 3,6 C 5,8 C 4,7 km/h
27.01.2014 16:00 5,2 C 78 % 971,0 hPa 0,0 l/m 4,5 km/h S 1,7 C 5,2 C 2,5 km/h
27.01.2014 17:00 3,6 C 78 % 971,1 hPa 0,0 l/m 3,2 km/h S 0,1 C 3,6 C 1,8 km/h
27.01.2014 18:00 3,6 C 79 % 971,7 hPa 0,0 l/m 5,8 km/h S-SW 0,3 C 3,6 C 3,2 km/h
27.01.2014 19:00 4,2 C 76 % 971,7 hPa 0,0 l/m 12,3 km/h S 0,4 C -0,4 C 6,8 km/h
27.01.2014 20:00 3,8 C 77 % 971,9 hPa 0,0 l/m 0,0 km/h W-SW 0,1 C 3,8 C 0,0 km/h
27.01.2014 21:00 4,3 C 77 % 971,4 hPa 0,0 l/m 12,6 km/h S-SW 0,6 C -0,4 C 12,6 km/h
27.01.2014 22:00 4,4 C 76 % 972,0 hPa 0,0 l/m 6,5 km/h S 0,5 C 4,3 C 6,5 km/h
27.01.2014 23:00 4,4 C 75 % 972,0 hPa 0,0 l/m 4,7 km/h S-SW 0,4 C 4,4 C 4,7 km/h
28.01.2014 00:00 4,3 C 75 % 972,7 hPa 0,0 l/m 1,1 km/h S-SO 0,3 C 4,3 C 1,1 km/h
28.01.2014 01:00 4,1 C 76 % 972,4 hPa 0,0 l/m 2,2 km/h S-SW 0,3 C 4,1 C 2,2 km/h
28.01.2014 02:00 3,9 C 76 % 972,7 hPa 0,0 l/m 0,0 km/h O-NO 0,1 C 3,9 C 0,0 km/h
28.01.2014 03:00 3,3 C 78 % 972,3 hPa 0,0 l/m 0,0 km/h NO -0,2 C 3,3 C 0,0 km/h
28.01.2014 04:00 0,8 C 82 % 972,5 hPa 0,0 l/m 0,0 km/h O-SO -1,9 C 0,8 C 0,0 km/h
28.01.2014 05:00 -0,5 C 86 % 972,6 hPa 0,0 l/m 0,0 km/h O-NO -2,5 C -0,5 C 0,0 km/h
28.01.2014 06:00 -0,8 C 87 % 972,5 hPa 0,0 l/m 0,0 km/h NO -2,7 C -0,8 C 0,0 km/h
28.01.2014 07:00 -0,8 C 88 % 972,6 hPa 0,0 l/m 0,0 km/h O -2,5 C -0,8 C 0,0 km/h
28.01.2014 08:00 -1,3 C 87 % 972,6 hPa 0,0 l/m 0,0 km/h O-NO -3,2 C -1,3 C 0,0 km/h
28.01.2014 09:00 3,1 C 87 % 972,6 hPa 0,0 l/m 0,0 km/h SO 1,2 C 3,1 C 0,0 km/h
28.01.2014 10:00 8,5 C 74 % 972,6 hPa 0,0 l/m 0,0 km/h W 4,1 C 8,5 C 0,0 km/h
28.01.2014 11:00 10,9 C 60 % 972,6 hPa 0,0 l/m 0,0 km/h S 3,4 C 10,9 C 0,0 km/h
28.01.2014 12:00 13,0 C 55 % 972,0 hPa 0,0 l/m 2,6 km/h S 4,2 C 13,0 C 1,4 km/h
28.01.2014 13:00 11,2 C 52 % 971,3 hPa 0,0 l/m 0,0 km/h S 1,7 C 11,2 C 0,0 km/h
28.01.2014 14:00 12,1 C 48 % 970,2 hPa 0,0 l/m 4,5 km/h SO 1,4 C 12,1 C 2,5 km/h
28.01.2014 15:00 12,7 C 42 % 969,2 hPa 0,0 l/m 10,4 km/h SO 0,1 C 10,4 C 5,8 km/h
28.01.2014 16:00 11,4 C 45 % 969,1 hPa 0,0 l/m 24,0 km/h SO -0,1 C 4,0 C 13,3 km/h
28.01.2014 17:00 4,9 C 58 % 969,2 hPa 0,0 l/m 10,4 km/h SO -2,7 C 1,7 C 5,8 km/h
28.01.2014 18:00 3,4 C 65 % 968,8 hPa 0,0 l/m 15,6 km/h SO -2,5 C -3,2 C 8,6 km/h
28.01.2014 19:00 2,9 C 70 % 968,6 hPa 0,0 l/m 14,9 km/h S-SO -2,0 C -3,4 C 8,3 km/h
28.01.2014 20:00 3,2 C 69 % 968,7 hPa 0,0 l/m 36,9 km/h O-SO -1,9 C -10,6 C 20,5 km/h
28.01.2014 21:00 3,3 C 69 % 968,8 hPa 0,0 l/m 9,7 km/h N -1,8 C 0,4 C 9,7 km/h
28.01.2014 22:00 1,4 C 72 % 969,0 hPa 0,0 l/m 0,0 km/h O -3,1 C 1,4 C 0,0 km/h
28.01.2014 23:00 0,3 C 75 % 968,7 hPa 0,0 l/m 0,0 km/h S-SO -3,6 C 0,3 C 0,0 km/h
29.01.2014 00:00 -0,9 C 77 % 968,8 hPa 0,0 l/m 0,0 km/h SO -4,4 C -0,9 C 0,0 km/h
29.01.2014 01:00 -1,9 C 81 % 968,3 hPa 0,0 l/m 0,0 km/h SO -4,7 C -1,9 C 0,0 km/h
29.01.2014 02:00 -2,2 C 83 % 968,5 hPa 0,0 l/m 0,0 km/h SO -4,7 C -2,2 C 0,0 km/h
29.01.2014 03:00 -2,9 C 85 % 967,9 hPa 0,0 l/m 0,0 km/h N-NO -5,1 C -2,9 C 0,0 km/h
29.01.2014 04:00 -3,1 C 86 % 967,9 hPa 0,0 l/m 0,0 km/h W-NW -5,1 C -3,1 C 0,0 km/h
29.01.2014 05:00 -3,6 C 86 % 968,1 hPa 0,0 l/m 0,0 km/h N-NO -5,6 C -3,6 C 0,0 km/h
29.01.2014 06:00 -4,4 C 87 % 968,5 hPa 0,0 l/m 0,0 km/h N-NO -6,2 C -4,4 C 0,0 km/h
29.01.2014 07:00 -4,1 C 87 % 968,7 hPa 0,0 l/m 0,0 km/h N -5,9 C -4,1 C 0,0 km/h
29.01.2014 08:00 -4,6 C 87 % 968,7 hPa 0,0 l/m 0,0 km/h W-NW -6,4 C -4,6 C 0,0 km/h
29.01.2014 09:00 -1,4 C 87 % 968,7 hPa 0,0 l/m 0,0 km/h N-NW -3,3 C -1,4 C 0,0 km/h
29.01.2014 10:00 4,3 C 77 % 996,5 hPa 0,0 l/m 0,0 km/h NW 0,6 C 4,3 C 0,0 km/h
29.01.2014 11:00 8,8 C 67 % 996,0 hPa 0,0 l/m 0,0 km/h W-SW 3,0 C 8,8 C 0,0 km/h
29.01.2014 12:00 5,0 C 69 % 969,8 hPa 0,0 l/m 4,5 km/h W-SW -0,2 C 5,0 C 2,5 km/h
29.01.2014 13:00 5,5 C 67 % 969,9 hPa 0,0 l/m 12,3 km/h O-NO -0,1 C 1,2 C 6,8 km/h
29.01.2014 14:00 5,8 C 67 % 969,5 hPa 0,0 l/m 0,0 km/h O 0,2 C 5,8 C 0,0 km/h
29.01.2014 15:00 4,4 C 71 % 969,4 hPa 0,0 l/m 0,0 km/h W -0,4 C 4,4 C 0,0 km/h
29.01.2014 16:00 2,9 C 74 % 969,9 hPa 0,0 l/m 0,0 km/h W-SW -1,3 C 2,9 C 0,0 km/h
29.01.2014 17:00 1,6 C 76 % 969,4 hPa 0,0 l/m 0,0 km/h S -2,2 C 1,6 C 0,0 km/h
29.01.2014 18:00 0,9 C 82 % 970,9 hPa 0,0 l/m 1,9 km/h S -1,8 C 0,9 C 1,1 km/h
29.01.2014 19:00 -0,8 C 83 % 971,7 hPa 0,0 l/m 0,0 km/h NO -3,3 C -0,8 C 0,0 km/h
29.01.2014 20:00 -1,4 C 85 % 972,0 hPa 0,0 l/m 0,0 km/h O -3,6 C -1,4 C 0,0 km/h
29.01.2014 21:00 -0,6 C 86 % 972,5 hPa 0,0 l/m 0,0 km/h O-SO -2,6 C -0,6 C 0,0 km/h
29.01.2014 22:00 -0,8 C 86 % 973,7 hPa 0,0 l/m 0,0 km/h O-SO -2,8 C -0,8 C 0,0 km/h
29.01.2014 23:00 -0,7 C 87 % 974,1 hPa 0,0 l/m 0,0 km/h O-NO -2,6 C -0,7 C 0,0 km/h
30.01.2014 00:00 -0,7 C 87 % 974,8 hPa 0,0 l/m 0,0 km/h O-NO -2,6 C -0,7 C 0,0 km/h
30.01.2014 01:00 -0,9 C 87 % 974,9 hPa 0,0 l/m 0,0 km/h W-SW -2,8 C -0,9 C 0,0 km/h
30.01.2014 02:00 -0,6 C 88 % 974,6 hPa 0,0 l/m 0,0 km/h W -2,3 C -0,6 C 0,0 km/h
30.01.2014 03:00 -0,9 C 88 % 975,3 hPa 0,0 l/m 0,0 km/h W-NW -2,6 C -0,9 C 0,0 km/h
30.01.2014 04:00 -1,1 C 88 % 975,6 hPa 0,0 l/m 0,0 km/h NW -2,8 C -1,1 C 0,0 km/h
30.01.2014 05:00 -1,5 C 87 % 975,7 hPa 0,0 l/m 0,0 km/h N-NO -3,4 C -1,5 C 0,0 km/h
30.01.2014 06:00 -1,1 C 88 % 975,8 hPa 0,0 l/m 0,0 km/h O-NO -2,8 C -1,1 C 0,0 km/h
30.01.2014 07:00 -0,6 C 88 % 975,9 hPa 0,0 l/m 0,0 km/h O -2,3 C -0,6 C 0,0 km/h
30.01.2014 08:00 -1,6 C 88 % 1003,1 hPa 0,0 l/m 0,0 km/h O-NO -3,3 C -1,6 C 0,0 km/h
30.01.2014 09:00 -0,2 C 87 % 1003,3 hPa 0,0 l/m 0,0 km/h W-NW -2,1 C -0,2 C 0,0 km/h
30.01.2014 10:00 1,6 C 87 % 1003,7 hPa 0,0 l/m 0,0 km/h W-NW -0,3 C 1,6 C 0,0 km/h
30.01.2014 11:00 3,8 C 84 % 1004,0 hPa 0,0 l/m 0,0 km/h W 1,4 C 3,8 C 0,0 km/h
30.01.2014 12:00 4,1 C 81 % 976,5 hPa 0,0 l/m 0,0 km/h W-NW 1,1 C 4,1 C 0,0 km/h
30.01.2014 13:00 4,8 C 78 % 975,7 hPa 0,0 l/m 0,0 km/h W 1,3 C 4,8 C 0,0 km/h
30.01.2014 14:00 4,6 C 78 % 975,0 hPa 0,0 l/m 0,0 km/h W 1,1 C 4,6 C 0,0 km/h
30.01.2014 15:00 3,8 C 80 % 974,7 hPa 0,0 l/m 0,0 km/h W-SW 0,7 C 3,8 C 0,0 km/h
30.01.2014 16:00 3,2 C 82 % 974,4 hPa 0,0 l/m 0,0 km/h SW 0,4 C 3,2 C 0,0 km/h
30.01.2014 17:00 2,2 C 83 % 974,8 hPa 0,0 l/m 0,0 km/h SW -0,4 C 2,2 C 0,0 km/h
30.01.2014 18:00 1,8 C 84 % 975,3 hPa 0,0 l/m 0,0 km/h W -0,6 C 1,8 C 0,0 km/h
30.01.2014 19:00 1,8 C 85 % 974,9 hPa 0,0 l/m 0,0 km/h W-SW -0,4 C 1,8 C 0,0 km/h
30.01.2014 20:00 1,3 C 86 % 974,9 hPa 0,0 l/m 0,0 km/h S-SW -0,8 C 1,3 C 0,0 km/h
30.01.2014 21:00 1,4 C 86 % 975,2 hPa 0,0 l/m 0,0 km/h W-SW -0,7 C 1,4 C 0,0 km/h
30.01.2014 22:00 1,2 C 87 % 975,6 hPa 0,0 l/m 0,0 km/h W-SW -0,7 C 1,2 C 0,0 km/h
30.01.2014 23:00 0,8 C 87 % 976,4 hPa 0,0 l/m 2,2 km/h W -1,1 C 0,8 C 2,2 km/h
31.01.2014 00:00 0,4 C 87 % 977,2 hPa 0,0 l/m 0,0 km/h W -1,5 C 0,4 C 0,0 km/h
31.01.2014 01:00 0,1 C 87 % 977,6 hPa 0,0 l/m 0,0 km/h W -1,8 C 0,1 C 0,0 km/h
31.01.2014 02:00 0,3 C 87 % 978,0 hPa 0,0 l/m 0,0 km/h SO -1,6 C 0,3 C 0,0 km/h
31.01.2014 03:00 0,1 C 87 % 977,9 hPa 0,0 l/m 0,0 km/h SO -1,8 C 0,1 C 0,0 km/h
31.01.2014 04:00 -2,1 C 87 % 978,2 hPa 0,0 l/m 0,0 km/h SO -4,0 C -2,1 C 0,0 km/h
31.01.2014 05:00 -2,2 C 88 % 978,6 hPa 0,0 l/m 0,0 km/h SO -3,9 C -2,2 C 0,0 km/h
31.01.2014 06:00 -2,6 C 88 % 979,1 hPa 0,0 l/m 0,0 km/h SO -4,3 C -2,6 C 0,0 km/h
31.01.2014 07:00 -2,1 C 88 % 979,2 hPa 0,0 l/m 0,0 km/h SO -3,8 C -2,1 C 0,0 km/h
31.01.2014 08:00 -2,5 C 88 % 979,2 hPa 0,0 l/m 0,0 km/h SO -4,2 C -2,5 C 0,0 km/h
31.01.2014 09:00 0,4 C 86 % 979,6 hPa 0,0 l/m 1,9 km/h W -1,7 C 0,4 C 1,1 km/h
31.01.2014 10:00 5,6 C 82 % 981,1 hPa 0,0 l/m 0,0 km/h W 2,8 C 5,6 C 0,0 km/h
31.01.2014 11:00 5,7 C 78 % 981,5 hPa 0,0 l/m 0,0 km/h S-SO 2,2 C 5,7 C 0,0 km/h
31.01.2014 12:00 5,3 C 78 % 980,7 hPa 0,0 l/m 0,0 km/h W 1,8 C 5,3 C 0,0 km/h
31.01.2014 13:00 9,4 C 67 % 980,6 hPa 0,0 l/m 0,0 km/h W 3,6 C 9,4 C 0,0 km/h
31.01.2014 14:00 10,1 C 63 % 1006,8 hPa 0,0 l/m 3,2 km/h W-NW 3,4 C 10,1 C 1,8 km/h
31.01.2014 15:00 12,1 C 56 % 1007,0 hPa 0,0 l/m 0,0 km/h W 3,6 C 12,1 C 0,0 km/h
31.01.2014 16:00 12,1 C 56 % 1007,4 hPa 0,0 l/m 0,0 km/h S 3,6 C 12,1 C 0,0 km/h
31.01.2014 17:00 6,8 C 66 % 1007,1 hPa 0,0 l/m 0,0 km/h O-NO 0,9 C 6,8 C 0,0 km/h
31.01.2014 18:00 1,5 C 80 % 1007,0 hPa 0,0 l/m 0,0 km/h O -1,6 C 1,5 C 0,0 km/h
31.01.2014 19:00 0,9 C 84 % 1006,9 hPa 0,0 l/m 0,0 km/h NO -1,5 C 0,9 C 0,0 km/h
31.01.2014 20:00 -0,1 C 85 % 1007,0 hPa 0,0 l/m 0,0 km/h O -2,3 C -0,1 C 0,0 km/h
31.01.2014 21:00 0,1 C 86 % 979,2 hPa 0,0 l/m 0,0 km/h O-SO -2,0 C 0,1 C 0,0 km/h
31.01.2014 22:00 -0,9 C 87 % 978,9 hPa 0,0 l/m 0,0 km/h O-SO -2,8 C -0,9 C 0,0 km/h
31.01.2014 23:00 -1,3 C 87 % 978,6 hPa 0,0 l/m 0,0 km/h O-SO -3,2 C -1,3 C 0,0 km/h
01.02.2014 00:00 -1,2 C 88 % 978,2 hPa 0,0 l/m 0,0 km/h O-SO -2,9 C -1,2 C 0,0 km/h
01.02.2014 01:00 -1,2 C 88 % 977,7 hPa 0,0 l/m 0,0 km/h O-SO -2,9 C -1,2 C 0,0 km/h
01.02.2014 02:00 -1,6 C 87 % 977,2 hPa 0,0 l/m 0,0 km/h O-NO -3,5 C -1,6 C 0,0 km/h
01.02.2014 03:00 -2,1 C 87 % 976,1 hPa 0,0 l/m 0,0 km/h O-SO -4,0 C -2,1 C 0,0 km/h
01.02.2014 04:00 -1,0 C 87 % 975,0 hPa 0,0 l/m 1,4 km/h O-SO -2,9 C -1,0 C 1,4 km/h
01.02.2014 05:00 -2,1 C 88 % 974,2 hPa 0,0 l/m 0,6 km/h N-NO -3,8 C -2,1 C 0,4 km/h
01.02.2014 06:00 -2,4 C 88 % 974,1 hPa 0,0 l/m 0,0 km/h O-SO -4,1 C -2,4 C 0,0 km/h
01.02.2014 07:00 -1,5 C 87 % 973,9 hPa 0,0 l/m 0,0 km/h O-SO -3,4 C -1,5 C 0,0 km/h
01.02.2014 08:00 -1,9 C 87 % 974,0 hPa 0,0 l/m 0,0 km/h SO -3,8 C -1,9 C 0,0 km/h
01.02.2014 09:00 2,3 C 87 % 974,4 hPa 0,0 l/m 0,0 km/h SO 0,4 C 2,3 C 0,0 km/h
01.02.2014 10:00 3,6 C 85 % 973,8 hPa 0,0 l/m 0,0 km/h O-SO 1,3 C 3,6 C 0,0 km/h
01.02.2014 11:00 5,8 C 81 % 974,6 hPa 0,0 l/m 0,0 km/h N-NW 2,8 C 5,8 C 0,0 km/h
01.02.2014 12:00 6,2 C 76 % 975,2 hPa 0,0 l/m 0,0 km/h S-SW 2,3 C 6,2 C 0,0 km/h
01.02.2014 13:00 8,4 C 63 % 975,2 hPa 0,0 l/m 38,2 km/h S-SW 1,8 C -3,2 C 21,2 km/h
01.02.2014 14:00 8,5 C 63 % 975,5 hPa 0,0 l/m 22,0 km/h S 1,9 C 0,7 C 12,2 km/h
01.02.2014 15:00 8,6 C 64 % 975,8 hPa 0,0 l/m 25,3 km/h S 2,2 C -0,1 C 14,0 km/h
01.02.2014 16:00 7,9 C 67 % 976,8 hPa 0,0 l/m 15,6 km/h S-SW 2,2 C 2,3 C 8,6 km/h
01.02.2014 17:00 6,9 C 73 % 977,1 hPa 0,0 l/m 1,9 km/h S-SW 2,4 C 6,9 C 1,1 km/h
01.02.2014 18:00 5,5 C 82 % 977,9 hPa 0,8 l/m 1,9 km/h S-SW 2,7 C 5,5 C 1,1 km/h
01.02.2014 19:00 5,1 C 85 % 978,2 hPa 0,0 l/m 12,3 km/h S-SW 2,8 C 0,7 C 6,8 km/h
01.02.2014 20:00 4,9 C 86 % 978,4 hPa 0,0 l/m 0,0 km/h NW 2,8 C 4,9 C 0,0 km/h
01.02.2014 21:00 4,6 C 87 % 978,8 hPa 0,8 l/m 0,0 km/h N 2,6 C 4,6 C 0,0 km/h
01.02.2014 22:00 4,4 C 87 % 979,1 hPa 0,8 l/m 0,0 km/h N-NW 2,4 C 4,4 C 0,0 km/h
01.02.2014 23:00 4,1 C 87 % 979,5 hPa 0,8 l/m 0,0 km/h O-SO 2,1 C 4,1 C 0,0 km/h
02.02.2014 00:00 4,1 C 87 % 979,6 hPa 0,8 l/m 0,0 km/h O-SO 2,1 C 4,1 C 0,0 km/h
02.02.2014 01:00 3,9 C 87 % 979,9 hPa 0,8 l/m 0,0 km/h O-NO 1,9 C 3,9 C 0,0 km/h
02.02.2014 02:00 3,8 C 87 % 980,3 hPa 0,8 l/m 0,0 km/h O-NO 1,8 C 3,8 C 0,0 km/h
02.02.2014 03:00 3,6 C 87 % 980,6 hPa 0,8 l/m 0,0 km/h O-NO 1,6 C 3,6 C 0,0 km/h
02.02.2014 04:00 3,4 C 87 % 980,8 hPa 0,0 l/m 0,0 km/h O-NO 1,4 C 3,4 C 0,0 km/h
02.02.2014 05:00 3,3 C 87 % 981,6 hPa 0,8 l/m 0,0 km/h SO 1,3 C 3,3 C 0,0 km/h
02.02.2014 06:00 3,1 C 87 % 981,9 hPa 0,8 l/m 0,0 km/h SO 1,2 C 3,1 C 0,0 km/h
02.02.2014 07:00 2,9 C 86 % 982,5 hPa 0,0 l/m 0,0 km/h O-SO 0,8 C 2,9 C 0,0 km/h
02.02.2014 08:00 2,9 C 85 % 983,2 hPa 0,8 l/m 16,8 km/h W 0,6 C -4,4 C 9,4 km/h
02.02.2014 09:00 3,9 C 84 % 984,3 hPa 0,0 l/m 0,0 km/h W-SW 1,4 C 3,9 C 0,0 km/h
02.02.2014 10:00 6,8 C 87 % 985,0 hPa 0,0 l/m 0,0 km/h S-SW 4,8 C 6,8 C 0,0 km/h
02.02.2014 11:00 6,5 C 87 % 985,7 hPa 0,0 l/m 0,0 km/h W 4,5 C 6,5 C 0,0 km/h
02.02.2014 12:00 10,3 C 81 % 986,0 hPa 0,0 l/m 0,0 km/h N-NW 7,2 C 10,3 C 0,0 km/h
02.02.2014 13:00 9,2 C 79 % 986,0 hPa 0,0 l/m 0,0 km/h NW 5,8 C 9,2 C 0,0 km/h
02.02.2014 14:00 8,2 C 78 % 986,0 hPa 0,0 l/m 0,0 km/h NW 4,6 C 8,2 C 0,0 km/h
02.02.2014 15:00 9,0 C 77 % 986,2 hPa 0,0 l/m 0,0 km/h S-SO 5,2 C 9,0 C 0,0 km/h
02.02.2014 16:00 7,9 C 78 % 1013,8 hPa 0,0 l/m 0,0 km/h SO 4,3 C 7,9 C 0,0 km/h
02.02.2014 17:00 7,2 C 78 % 1014,0 hPa 0,0 l/m 0,0 km/h SO 3,6 C 7,2 C 0,0 km/h
02.02.2014 18:00 3,6 C 85 % 1014,4 hPa 0,0 l/m 0,0 km/h SO 1,3 C 3,6 C 0,0 km/h
02.02.2014 19:00 2,5 C 86 % 1014,7 hPa 0,0 l/m 0,0 km/h O-SO 0,4 C 2,5 C 0,0 km/h
02.02.2014 20:00 2,1 C 87 % 1014,8 hPa 0,0 l/m 0,0 km/h O-SO 0,2 C 2,1 C 0,0 km/h
02.02.2014 21:00 1,5 C 88 % 988,3 hPa 0,0 l/m 0,0 km/h NO -0,3 C 1,5 C 0,0 km/h
02.02.2014 22:00 1,4 C 87 % 988,0 hPa 0,0 l/m 0,0 km/h O -0,5 C 1,4 C 0,0 km/h
02.02.2014 23:00 0,9 C 87 % 987,8 hPa 0,0 l/m 0,0 km/h O -1,0 C 0,9 C 0,0 km/h
Min-Datum _ 29.01.14 28.01.14 27.01.14 - 27.01.14 - 29.01.14 28.01.14 27.01.14
_ Min-Zeit 08:19 15:19 00:19 - 04:19 - 08:19 20:19 04:19
Minimum _ -4,6 C 42 % 967,9 hPa - 0,0 km/h - -6,4 C -10,6 C 0,0 km/h
Max-Datum _ 28.01.14 27.01.14 02.02.14 27.01.14 01.02.14 - 02.02.14 28.01.14 01.02.14
_ Max-Zeit 12:19 04:19 20:19 03:19 13:19 - 12:19 12:19 13:19
Maximum _ 13,0 C 88 % 1014,8 hPa 3,9 l/m 38,2 km/h
S-SW
- 7,2 C 13,0 C 21,2 km/h
S-SW
Durchschnitt _ 3,1 C 80 % 978,4 hPa #14,0 l/m 2,6 km/h SO -0,1 C 2,3 C 1,6 km/h
www.sexauwetter.de